Time;durP1;ratioP1;P1;durP2;ratioP2;P2;SDS_P1;SDS_P2;PMS_P1;PMS_P2;Temp;Humidity;BMP_temperature;BMP_pressure;BME280_temperature;BME280_humidity;BME280_pressure;Samples;Min_cycle;Max_cycle;Signal;HPM_P1;HPM_P2
2022/09/16 00:01:10;;;;;;;9.90;3.25;;;;;;;;;;5054725;28;20129;-72
2022/09/16 00:03:36;;;;;;;13.07;3.65;;;;;;;;;;5054174;28;20056;-72
2022/09/16 00:06:02;;;;;;;7.97;2.72;;;;;;;;;;5054260;28;20118;-73
2022/09/16 00:08:28;;;;;;;6.10;2.75;;;;;;;;;;5054221;28;20484;-73
2022/09/16 00:10:59;;;;;;;4.90;2.65;;;;;;;;;;5053987;28;20110;-72
2022/09/16 00:13:25;;;;;;;6.75;2.83;;;;;;;;;;5054223;28;20496;-73
2022/09/16 00:15:51;;;;;;;7.47;2.80;;;;;;;;;;5053879;28;20021;-74
2022/09/16 00:18:17;;;;;;;8.10;2.83;;;;;;;;;;5054119;28;20031;-73
2022/09/16 00:20:48;;;;;;;9.40;2.60;;;;;;;;;;5054065;28;20025;-73
2022/09/16 00:23:14;;;;;;;8.73;2.72;;;;;;;;;;5053798;28;20025;-72
2022/09/16 00:25:40;;;;;;;7.43;3.22;;;;;;;;;;5053725;28;20488;-74
2022/09/16 00:28:06;;;;;;;8.18;2.75;;;;;;;;;;5053915;28;20427;-74
2022/09/16 00:30:32;;;;;;;7.97;2.80;;;;;;;;;;5053668;28;20021;-72
2022/09/16 00:32:58;;;;;;;6.72;2.95;;;;;;;;;;5053882;28;20029;-73
2022/09/16 00:35:24;;;;;;;6.95;2.60;;;;;;;;;;5053593;28;20104;-73
2022/09/16 00:37:50;;;;;;;6.68;2.72;;;;;;;;;;5053535;28;20017;-73
2022/09/16 00:40:16;;;;;;;9.68;3.10;;;;;;;;;;5053485;28;20036;-73
2022/09/16 00:42:42;;;;;;;8.90;3.75;;;;;;;;;;5054036;28;20025;-73
2022/09/16 00:45:15;;;;;;;7.93;2.75;;;;;;;;;;5053464;28;20028;-73
2022/09/16 00:47:50;;;;;;;5.50;2.58;;;;;;;;;;5053201;28;20096;-73
2022/09/16 00:50:37;;;;;;;7.97;2.90;;;;;;;;;;5053650;28;20079;-73
2022/09/16 00:53:03;;;;;;;7.97;2.75;;;;;;;;;;5053294;28;20095;-73
2022/09/16 00:55:32;;;;;;;12.77;3.20;;;;;;;;;;5053306;28;20385;-73
2022/09/16 00:58:02;;;;;;;11.25;3.50;;;;;;;;;;5053045;28;20060;-72
2022/09/16 01:00:28;;;;;;;6.45;2.33;;;;;;;;;;5054045;28;20596;-72
2022/09/16 01:02:54;;;;;;;6.93;2.78;;;;;;;;;;5053231;28;20036;-72
2022/09/16 01:05:22;;;;;;;5.57;2.53;;;;;;;;;;5053383;28;20136;-72
2022/09/16 01:07:49;;;;;;;7.32;2.90;;;;;;;;;;5053062;28;20489;-74
2022/09/16 01:10:17;;;;;;;6.88;2.83;;;;;;;;;;5053382;28;20060;-74
2022/09/16 01:12:45;;;;;;;8.98;2.67;;;;;;;;;;5053350;28;20083;-74
2022/09/16 01:15:11;;;;;;;7.40;2.50;;;;;;;;;;5053319;28;20526;-72
2022/09/16 01:17:46;;;;;;;8.93;3.05;;;;;;;;;;5053020;28;20037;-72
2022/09/16 01:20:27;;;;;;;7.97;2.30;;;;;;;;;;5053323;28;20086;-72
2022/09/16 01:23:17;;;;;;;9.88;3.08;;;;;;;;;;5053328;28;20108;-73
2022/09/16 01:25:49;;;;;;;6.93;2.90;;;;;;;;;;5047457;28;20040;-73
2022/09/16 01:28:24;;;;;;;5.57;2.50;;;;;;;;;;5052876;28;20036;-72
2022/09/16 01:31:01;;;;;;;8.30;2.70;;;;;;;;;;5053540;28;20021;-74
2022/09/16 01:33:40;;;;;;;8.45;2.92;;;;;;;;;;5053505;28;20022;-74
2022/09/16 01:36:15;;;;;;;7.15;2.85;;;;;;;;;;5053474;28;20048;-73
2022/09/16 01:38:55;;;;;;;8.90;2.90;;;;;;;;;;5053383;28;20060;-72
2022/09/16 01:41:21;;;;;;;;;;;;;;;;;;5053903;28;20385;-73
2022/09/16 01:44:03;;;;;;;4.72;2.40;;;;;;;;;;5052811;28;19912;-72
2022/09/16 01:46:44;;;;;;;7.40;3.50;;;;;;;;;;5052781;28;20147;-72
2022/09/16 01:49:42;;;;;;;7.00;3.20;;;;;;;;;;5052692;28;20052;-73
2022/09/16 01:52:44;;;;;;;7.53;2.70;;;;;;;;;;5030191;28;20048;-74
2022/09/16 01:55:16;;;;;;;6.07;2.60;;;;;;;;;;4994528;28;20026;-72
2022/09/16 01:58:00;;;;;;;5.78;2.92;;;;;;;;;;5045977;28;20071;-72
2022/09/16 02:00:27;;;;;;;10.00;3.28;;;;;;;;;;5056029;28;20094;-71
2022/09/16 02:02:53;;;;;;;9.07;2.50;;;;;;;;;;5056679;28;20500;-72
2022/09/16 02:05:33;;;;;;;6.53;2.60;;;;;;;;;;5056619;28;20583;-72
2022/09/16 02:08:02;;;;;;;5.53;2.85;;;;;;;;;;5038073;28;20381;-72
2022/09/16 02:10:30;;;;;;;9.20;2.80;;;;;;;;;;5056257;28;20029;-73
2022/09/16 02:13:01;;;;;;;5.45;2.80;;;;;;;;;;5056239;28;20021;-72
2022/09/16 02:15:28;;;;;;;10.40;3.35;;;;;;;;;;5056799;28;20032;-73
2022/09/16 02:17:59;;;;;;;6.47;2.50;;;;;;;;;;5056191;28;20076;-74
2022/09/16 02:20:26;;;;;;;8.45;3.03;;;;;;;;;;5056200;28;20017;-72
2022/09/16 02:22:57;;;;;;;7.95;2.58;;;;;;;;;;5056360;28;20045;-73
2022/09/16 02:25:23;;;;;;;5.57;2.85;;;;;;;;;;5038448;28;20381;-73
2022/09/16 02:27:51;;;;;;;8.85;2.95;;;;;;;;;;5056287;28;20059;-73
2022/09/16 02:30:18;;;;;;;7.93;3.00;;;;;;;;;;5055984;28;20041;-72
2022/09/16 02:32:54;;;;;;;7.43;2.97;;;;;;;;;;5056422;28;20028;-73
2022/09/16 02:35:21;;;;;;;7.68;3.15;;;;;;;;;;5056145;28;20056;-73
2022/09/16 02:37:53;;;;;;;9.60;3.20;;;;;;;;;;5055783;28;20017;-71
2022/09/16 02:40:31;;;;;;;6.90;3.03;;;;;;;;;;5056016;28;20032;-73
2022/09/16 02:42:58;;;;;;;5.88;3.05;;;;;;;;;;5055710;28;20366;-73
2022/09/16 02:45:25;;;;;;;6.00;3.20;;;;;;;;;;5055662;28;20029;-73
2022/09/16 02:48:03;;;;;;;9.98;3.20;;;;;;;;;;5056070;28;20098;-72
2022/09/16 02:50:41;;;;;;;7.13;3.10;;;;;;;;;;5055887;28;20021;-72
2022/09/16 02:53:10;;;;;;;6.20;2.80;;;;;;;;;;5055812;28;20089;-72
2022/09/16 02:55:36;;;;;;;8.73;3.30;;;;;;;;;;5056013;28;20128;-73
2022/09/16 02:58:03;;;;;;;7.00;2.95;;;;;;;;;;5055225;28;20098;-72
2022/09/16 03:00:30;;;;;;;17.83;4.25;;;;;;;;;;5056217;28;20381;-73
2022/09/16 03:02:58;;;;;;;8.23;3.05;;;;;;;;;;5055235;28;20552;-73
2022/09/16 03:05:30;;;;;;;9.07;2.83;;;;;;;;;;5055483;28;20028;-72
2022/09/16 03:07:56;;;;;;;11.65;4.07;;;;;;;;;;5055448;28;20071;-73
2022/09/16 03:10:25;;;;;;;6.88;2.65;;;;;;;;;;5054678;28;20024;-73
2022/09/16 03:13:00;;;;;;;6.43;2.88;;;;;;;;;;5055678;28;20021;-72
2022/09/16 03:15:45;;;;;;;6.18;2.65;;;;;;;;;;5055361;28;20068;-74
2022/09/16 03:18:30;;;;;;;9.30;3.10;;;;;;;;;;5055601;28;20355;-72
2022/09/16 03:21:02;;;;;;;7.25;2.90;;;;;;;;;;5054967;28;20024;-72
2022/09/16 03:23:49;;;;;;;10.38;2.90;;;;;;;;;;5055015;28;20053;-72
2022/09/16 03:26:24;;;;;;;7.65;3.08;;;;;;;;;;5055215;28;20032;-72
2022/09/16 03:29:03;;;;;;;5.63;2.92;;;;;;;;;;5036874;28;20033;-71
2022/09/16 03:31:44;;;;;;;7.75;2.70;;;;;;;;;;5054802;28;20057;-73
2022/09/16 03:34:16;;;;;;;5.82;2.70;;;;;;;;;;5055105;28;20441;-73
2022/09/16 03:36:45;;;;;;;8.55;3.00;;;;;;;;;;5054686;28;20099;-73
2022/09/16 03:39:11;;;;;;;6.35;2.90;;;;;;;;;;5054895;28;20078;-73
2022/09/16 03:41:37;;;;;;;6.03;2.78;;;;;;;;;;5054527;28;20539;-73
2022/09/16 03:44:03;;;;;;;7.32;3.00;;;;;;;;;;5054521;28;20108;-73
2022/09/16 03:46:29;;;;;;;6.95;2.90;;;;;;;;;;5036644;28;20025;-73
2022/09/16 03:48:56;;;;;;;5.80;2.75;;;;;;;;;;5054408;28;20033;-72
2022/09/16 03:51:22;;;;;;;6.80;3.13;;;;;;;;;;5054695;28;20025;-73
2022/09/16 03:53:49;;;;;;;7.18;3.33;;;;;;;;;;5054616;28;20036;-73
2022/09/16 03:56:15;;;;;;;7.13;3.08;;;;;;;;;;5054542;28;20553;-72
2022/09/16 03:58:41;;;;;;;8.85;3.10;;;;;;;;;;5054056;28;20132;-73
2022/09/16 04:01:07;;;;;;;7.15;3.42;;;;;;;;;;5055000;28;20120;-73
2022/09/16 04:03:35;;;;;;;6.22;3.53;;;;;;;;;;5054125;28;20065;-72
2022/09/16 04:06:01;;;;;;;6.75;2.97;;;;;;;;;;5054057;28;20028;-73
2022/09/16 04:08:27;;;;;;;6.15;3.40;;;;;;;;;;5054032;28;20035;-72
2022/09/16 04:10:57;;;;;;;8.88;3.88;;;;;;;;;;5054305;28;20025;-73
2022/09/16 04:13:23;;;;;;;10.77;3.80;;;;;;;;;;5054032;28;20078;-73
2022/09/16 04:15:49;;;;;;;7.50;3.50;;;;;;;;;;5054214;28;20048;-73
2022/09/16 04:18:16;;;;;;;16.30;3.78;;;;;;;;;;5054187;28;20067;-73
2022/09/16 04:20:42;;;;;;;5.53;3.28;;;;;;;;;;5054192;28;20397;-74
2022/09/16 04:23:08;;;;;;;8.07;2.85;;;;;;;;;;5053070;28;20033;-73
2022/09/16 04:25:34;;;;;;;6.22;3.00;;;;;;;;;;5053820;28;20021;-73
2022/09/16 04:28:00;;;;;;;7.43;3.30;;;;;;;;;;5053682;28;20096;-73
2022/09/16 04:30:26;;;;;;;8.02;3.20;;;;;;;;;;5053955;28;20021;-73
2022/09/16 04:32:56;;;;;;;12.48;3.55;;;;;;;;;;5053641;28;20025;-73
2022/09/16 04:35:22;;;;;;;7.25;3.40;;;;;;;;;;5053596;28;20104;-72
2022/09/16 04:37:48;;;;;;;7.72;3.13;;;;;;;;;;5053582;28;20374;-73
2022/09/16 04:40:15;;;;;;;8.60;2.80;;;;;;;;;;5053539;28;20163;-73
2022/09/16 04:42:42;;;;;;;6.75;3.17;;;;;;;;;;5054045;28;20418;-73
2022/09/16 04:45:08;;;;;;;20.17;3.78;;;;;;;;;;5053433;28;20118;-73
2022/09/16 04:47:34;;;;;;;7.25;2.60;;;;;;;;;;5053955;28;20151;-73
2022/09/16 04:50:00;;;;;;;5.00;2.60;;;;;;;;;;5053584;28;20115;-72
2022/09/16 04:52:26;;;;;;;5.97;3.17;;;;;;;;;;5053323;28;20017;-72
2022/09/16 04:54:52;;;;;;;7.95;2.80;;;;;;;;;;5053356;28;20021;-73
2022/09/16 04:57:18;;;;;;;9.38;2.70;;;;;;;;;;5053278;28;20496;-73
2022/09/16 04:59:44;;;;;;;7.05;2.30;;;;;;;;;;5052864;28;20044;-73
2022/09/16 05:02:10;;;;;;;8.25;3.08;;;;;;;;;;5053778;28;20024;-73
2022/09/16 05:04:36;;;;;;;7.82;2.78;;;;;;;;;;5053207;28;20059;-73
2022/09/16 05:07:02;;;;;;;9.38;2.50;;;;;;;;;;5053398;28;20071;-72
2022/09/16 05:09:28;;;;;;;6.43;2.47;;;;;;;;;;5053332;28;20409;-73
2022/09/16 05:11:54;;;;;;;5.88;2.42;;;;;;;;;;5053107;28;20029;-73
2022/09/16 05:14:20;;;;;;;7.40;2.97;;;;;;;;;;5053405;28;20024;-73
2022/09/16 05:16:46;;;;;;;6.10;2.30;;;;;;;;;;5053046;28;20029;-74
2022/09/16 05:19:13;;;;;;;7.78;2.50;;;;;;;;;;5053570;28;20036;-73
2022/09/16 05:21:39;;;;;;;9.15;3.00;;;;;;;;;;5053014;28;20086;-72
2022/09/16 05:24:07;;;;;;;6.53;2.47;;;;;;;;;;5053254;28;20029;-73
2022/09/16 05:26:34;;;;;;;8.48;2.95;;;;;;;;;;5053022;28;20029;-73
2022/09/16 05:29:05;;;;;;;12.80;2.70;;;;;;;;;;5052877;28;20063;-73
2022/09/16 05:31:32;;;;;;;6.78;2.80;;;;;;;;;;5053204;28;20028;-72
2022/09/16 05:33:59;;;;;;;8.77;2.85;;;;;;;;;;5055079;28;20035;-72
2022/09/16 05:36:26;;;;;;;7.70;3.20;;;;;;;;;;5057210;28;20033;-73
2022/09/16 05:38:52;;;;;;;8.57;2.50;;;;;;;;;;5057144;28;20025;-72
2022/09/16 05:41:18;;;;;;;9.48;2.55;;;;;;;;;;5056849;28;20032;-73
2022/09/16 05:43:44;;;;;;;8.43;2.80;;;;;;;;;;5056820;28;20024;-73
2022/09/16 05:46:22;;;;;;;16.63;4.03;;;;;;;;;;5056778;28;20035;-73
2022/09/16 05:48:49;;;;;;;9.52;3.47;;;;;;;;;;5056693;28;20108;-73
2022/09/16 05:51:16;;;;;;;14.25;3.03;;;;;;;;;;5057004;28;20116;-73
2022/09/16 05:53:42;;;;;;;9.00;2.92;;;;;;;;;;5056939;28;20465;-74
2022/09/16 05:56:12;;;;;;;7.32;2.88;;;;;;;;;;5056573;28;20504;-73
2022/09/16 05:58:39;;;;;;;6.70;2.40;;;;;;;;;;5056523;28;20053;-73
2022/09/16 06:01:07;;;;;;;15.13;3.63;;;;;;;;;;5057071;28;20029;-73
2022/09/16 06:03:33;;;;;;;7.65;2.70;;;;;;;;;;5056490;28;20033;-72
2022/09/16 06:06:03;;;;;;;12.90;3.33;;;;;;;;;;5056352;28;20400;-73
2022/09/16 06:08:30;;;;;;;5.97;2.53;;;;;;;;;;5056621;28;20100;-73
2022/09/16 06:10:56;;;;;;;9.00;2.78;;;;;;;;;;5056305;28;20025;-73
2022/09/16 06:13:23;;;;;;;8.40;3.08;;;;;;;;;;5056564;28;20024;-73
2022/09/16 06:15:58;;;;;;;7.60;2.60;;;;;;;;;;5056501;28;20024;-73
2022/09/16 06:18:26;;;;;;;5.32;2.78;;;;;;;;;;5056547;28;20362;-72
2022/09/16 06:20:52;;;;;;;13.10;3.38;;;;;;;;;;5056127;28;20083;-72
2022/09/16 06:23:18;;;;;;;21.70;5.13;;;;;;;;;;5056107;28;20033;-73
2022/09/16 06:25:44;;;;;;;6.50;3.33;;;;;;;;;;5056630;28;20060;-71
2022/09/16 06:28:10;;;;;;;11.35;3.13;;;;;;;;;;5056203;28;20025;-73
2022/09/16 06:30:37;;;;;;;7.10;3.15;;;;;;;;;;5056208;28;20492;-73
2022/09/16 06:33:04;;;;;;;7.63;3.03;;;;;;;;;;5055925;28;20532;-73
2022/09/16 06:35:30;;;;;;;8.50;3.10;;;;;;;;;;5055846;28;20052;-73
2022/09/16 06:37:56;;;;;;;7.72;2.85;;;;;;;;;;5056359;28;20028;-72
2022/09/16 06:40:22;;;;;;;5.65;2.50;;;;;;;;;;5055785;28;20021;-72
2022/09/16 06:42:48;;;;;;;7.85;2.53;;;;;;;;;;5055723;28;20029;-72
2022/09/16 06:45:14;;;;;;;8.45;2.55;;;;;;;;;;5055071;28;20485;-73
2022/09/16 06:47:40;;;;;;;8.15;2.33;;;;;;;;;;5055594;28;20033;-72
2022/09/16 06:50:06;;;;;;;6.13;2.28;;;;;;;;;;5055773;28;20025;-70
2022/09/16 06:52:32;;;;;;;7.75;2.50;;;;;;;;;;5055871;28;20025;-71
2022/09/16 06:54:59;;;;;;;8.00;3.40;;;;;;;;;;5055507;28;20489;-70
2022/09/16 06:57:25;;;;;;;5.50;2.38;;;;;;;;;;5055499;28;20123;-71
2022/09/16 06:59:51;;;;;;;7.07;2.92;;;;;;;;;;5055040;28;20053;-69
2022/09/16 07:02:18;;;;;;;5.35;2.70;;;;;;;;;;5055930;28;20481;-70
2022/09/16 07:04:44;;;;;;;7.22;2.28;;;;;;;;;;5055367;28;20048;-71
2022/09/16 07:07:11;;;;;;;5.47;2.55;;;;;;;;;;5055232;28;20036;-70
2022/09/16 07:09:37;;;;;;;6.05;2.42;;;;;;;;;;5055173;28;20029;-71
2022/09/16 07:12:03;;;;;;;18.15;4.20;;;;;;;;;;5055076;28;20075;-71
2022/09/16 07:14:31;;;;;;;13.32;3.45;;;;;;;;;;5055115;28;20486;-71
2022/09/16 07:16:57;;;;;;;6.18;2.53;;;;;;;;;;5055378;28;20020;-71
2022/09/16 07:19:24;;;;;;;6.57;2.33;;;;;;;;;;5055051;28;20025;-71
2022/09/16 07:21:50;;;;;;;7.95;2.85;;;;;;;;;;5054911;28;20025;-71
2022/09/16 07:24:16;;;;;;;5.25;2.20;;;;;;;;;;5055242;28;20074;-72
2022/09/16 07:26:42;;;;;;;5.45;2.00;;;;;;;;;;5054910;28;20056;-72
2022/09/16 07:29:12;;;;;;;10.25;2.50;;;;;;;;;;5054791;28;20033;-71
2022/09/16 07:31:39;;;;;;;4.10;1.70;;;;;;;;;;5055412;28;20029;-71
2022/09/16 07:34:06;;;;;;;5.40;2.13;;;;;;;;;;5055038;28;20085;-72
2022/09/16 07:36:33;;;;;;;5.63;2.22;;;;;;;;;;5054688;28;20389;-72
2022/09/16 07:38:59;;;;;;;8.43;1.75;;;;;;;;;;5054649;28;20032;-70
2022/09/16 07:41:25;;;;;;;;;;;;;;;;;;5055319;28;20033;-71
2022/09/16 07:43:53;;;;;;;3.13;1.33;;;;;;;;;;5054872;28;19911;-70
2022/09/16 07:46:19;;;;;;;4.78;1.80;;;;;;;;;;5054541;28;20029;-71
2022/09/16 07:48:46;;;;;;;4.85;1.30;;;;;;;;;;5054442;28;20036;-70
2022/09/16 07:51:13;;;;;;;3.78;1.00;;;;;;;;;;5036529;28;20359;-72
2022/09/16 07:53:39;;;;;;;5.40;1.13;;;;;;;;;;5054707;28;20051;-70
2022/09/16 07:56:07;;;;;;;5.20;1.08;;;;;;;;;;5054313;28;20049;-71
2022/09/16 07:58:33;;;;;;;3.78;0.93;;;;;;;;;;5054274;28;20505;-70
2022/09/16 08:00:59;;;;;;;1.70;0.82;;;;;;;;;;5054531;28;20489;-69
2022/09/16 08:03:25;;;;;;;5.47;0.93;;;;;;;;;;5054807;28;20029;-76
2022/09/16 08:05:51;;;;;;;14.43;1.83;;;;;;;;;;5054313;28;20017;-71
2022/09/16 08:08:17;;;;;;;6.00;1.17;;;;;;;;;;5054303;28;20028;-72
2022/09/16 08:10:43;;;;;;;2.15;0.88;;;;;;;;;;5054357;28;20075;-70
2022/09/16 08:13:10;;;;;;;3.53;1.15;;;;;;;;;;5054040;28;20033;-70
2022/09/16 08:15:36;;;;;;;2.97;0.77;;;;;;;;;;5053939;28;20017;-70
2022/09/16 08:18:02;;;;;;;5.53;1.10;;;;;;;;;;5053947;28;20031;-72
2022/09/16 08:20:28;;;;;;;5.35;1.17;;;;;;;;;;5054219;28;20056;-72
2022/09/16 08:22:54;;;;;;;4.43;1.42;;;;;;;;;;5053840;28;20473;-71
2022/09/16 08:25:20;;;;;;;1.90;0.82;;;;;;;;;;5053835;28;20039;-72
2022/09/16 08:27:46;;;;;;;4.32;0.57;;;;;;;;;;5054032;28;20033;-73
2022/09/16 08:30:12;;;;;;;3.53;1.05;;;;;;;;;;5053657;28;20032;-72
2022/09/16 08:32:38;;;;;;;5.70;0.70;;;;;;;;;;5053665;28;20025;-71
2022/09/16 08:35:04;;;;;;;6.65;0.80;;;;;;;;;;5053649;28;20623;-73
2022/09/16 08:37:30;;;;;;;2.45;0.73;;;;;;;;;;5053861;28;20028;-73
2022/09/16 08:39:56;;;;;;;1.73;0.50;;;;;;;;;;5053620;28;20049;-72
2022/09/16 08:42:31;;;;;;;1.88;0.70;;;;;;;;;;5053578;28;20036;-72
2022/09/16 08:45:08;;;;;;;2.92;0.60;;;;;;;;;;5053514;28;20024;-73
2022/09/16 08:48:02;;;;;;;2.95;0.70;;;;;;;;;;5054056;28;20029;-72
2022/09/16 08:50:30;;;;;;;2.55;0.63;;;;;;;;;;5053675;28;20024;-71
2022/09/16 08:52:57;;;;;;;1.88;0.82;;;;;;;;;;5053361;28;20025;-72
2022/09/16 08:55:23;;;;;;;1.30;0.50;;;;;;;;;;5053859;28;20021;-70
2022/09/16 08:58:00;;;;;;;2.30;0.60;;;;;;;;;;5053125;28;20104;-70
2022/09/16 09:00:26;;;;;;;1.98;0.82;;;;;;;;;;5053623;28;20440;-72
2022/09/16 09:02:57;;;;;;;2.72;0.60;;;;;;;;;;5053779;28;20029;-71
2022/09/16 09:05:39;;;;;;;3.30;1.02;;;;;;;;;;5053080;28;20029;-71
2022/09/16 09:08:25;;;;;;;2.40;0.80;;;;;;;;;;5053050;28;20386;-71
2022/09/16 09:10:56;;;;;;;2.22;0.63;;;;;;;;;;5053079;28;20117;-73
2022/09/16 09:13:31;;;;;;;3.03;1.02;;;;;;;;;;5053411;28;20031;-71
2022/09/16 09:16:00;;;;;;;3.78;0.98;;;;;;;;;;5035259;28;20035;-71
2022/09/16 09:18:32;;;;;;;1.88;0.82;;;;;;;;;;5053318;28;20432;-71
2022/09/16 09:21:01;;;;;;;3.05;0.65;;;;;;;;;;5053552;28;20041;-71
2022/09/16 09:23:27;;;;;;;6.07;1.02;;;;;;;;;;5053310;28;20075;-71
2022/09/16 09:25:56;;;;;;;5.43;1.02;;;;;;;;;;5052977;28;20029;-71
2022/09/16 09:28:42;;;;;;;3.42;0.75;;;;;;;;;;5052916;28;20029;-72
2022/09/16 09:31:07;;;;;;;2.60;0.63;;;;;;;;;;5052967;28;20025;-73
2022/09/16 09:33:54;;;;;;;4.25;0.73;;;;;;;;;;5053477;28;20028;-71
2022/09/16 09:36:29;;;;;;;1.15;0.60;;;;;;;;;;5052691;28;20082;-72
2022/09/16 09:39:07;;;;;;;2.80;0.88;;;;;;;;;;5053487;28;20032;-72
2022/09/16 09:41:33;;;;;;;3.55;0.75;;;;;;;;;;5053174;28;20136;-73
2022/09/16 09:44:18;;;;;;;2.28;0.85;;;;;;;;;;5052867;28;20551;-72
2022/09/16 09:46:46;;;;;;;2.95;1.00;;;;;;;;;;5052847;28;20036;-72
2022/09/16 09:49:27;;;;;;;3.75;0.85;;;;;;;;;;5052732;28;20477;-71
2022/09/16 09:51:53;;;;;;;1.88;0.60;;;;;;;;;;5052804;28;20067;-72
2022/09/16 09:54:25;;;;;;;2.20;0.85;;;;;;;;;;5052793;28;20017;-73
2022/09/16 09:57:10;;;;;;;2.05;0.95;;;;;;;;;;5053274;28;20064;-72
2022/09/16 09:59:48;;;;;;;3.95;0.73;;;;;;;;;;5052791;28;20135;-72
2022/09/16 10:02:16;;;;;;;2.88;1.00;;;;;;;;;;5053523;28;20025;-71
2022/09/16 10:04:42;;;;;;;4.20;1.00;;;;;;;;;;5052460;28;20031;-72
2022/09/16 10:07:08;;;;;;;5.90;0.80;;;;;;;;;;5052626;28;20028;-71
2022/09/16 10:09:35;;;;;;;1.13;0.50;;;;;;;;;;5052544;28;20108;-72
2022/09/16 10:12:01;;;;;;;1.00;0.73;;;;;;;;;;5052875;28;20362;-71
2022/09/16 10:14:31;;;;;;;1.92;0.50;;;;;;;;;;5053133;28;20029;-72
2022/09/16 10:17:01;;;;;;;1.35;0.63;;;;;;;;;;5052809;28;20381;-72
2022/09/16 10:19:29;;;;;;;3.83;0.98;;;;;;;;;;5052867;28;20013;-72
2022/09/16 10:21:56;;;;;;;4.05;1.25;;;;;;;;;;5055364;28;20032;-70
2022/09/16 10:24:33;;;;;;;3.53;1.10;;;;;;;;;;5056102;28;20390;-71
2022/09/16 10:26:59;;;;;;;1.73;0.77;;;;;;;;;;5056057;28;20033;-71
2022/09/16 10:29:26;;;;;;;3.00;0.90;;;;;;;;;;5056483;28;20025;-72
2022/09/16 10:31:52;;;;;;;1.75;0.63;;;;;;;;;;5055983;28;20078;-72
2022/09/16 10:34:31;;;;;;;1.42;0.45;;;;;;;;;;5056199;28;20092;-73
2022/09/16 10:37:00;;;;;;;3.13;1.08;;;;;;;;;;5055875;28;20025;-72
2022/09/16 10:39:26;;;;;;;4.25;0.80;;;;;;;;;;5056382;28;20416;-71
2022/09/16 10:41:52;;;;;;;1.92;0.80;;;;;;;;;;5055776;28;20029;-71
2022/09/16 10:44:24;;;;;;;2.08;1.00;;;;;;;;;;5055712;28;20025;-71
2022/09/16 10:46:58;;;;;;;3.38;0.80;;;;;;;;;;5055700;28;20555;-70
2022/09/16 10:49:30;;;;;;;3.80;1.10;;;;;;;;;;5055578;28;20107;-70
2022/09/16 10:52:06;;;;;;;3.80;0.82;;;;;;;;;;5055898;28;20021;-72
2022/09/16 10:54:32;;;;;;;2.38;1.00;;;;;;;;;;5055579;28;20032;-72
2022/09/16 10:56:58;;;;;;;7.05;1.00;;;;;;;;;;5055476;28;20181;-71
2022/09/16 10:59:24;;;;;;;3.80;1.02;;;;;;;;;;5055276;28;20084;-71
2022/09/16 11:02:04;;;;;;;4.15;0.93;;;;;;;;;;5056220;28;20111;-69
2022/09/16 11:04:30;;;;;;;2.92;0.93;;;;;;;;;;5055757;28;20075;-71
2022/09/16 11:07:08;;;;;;;3.47;0.70;;;;;;;;;;5055291;28;20043;-72
2022/09/16 11:09:49;;;;;;;1.95;0.90;;;;;;;;;;5055474;28;20031;-71
2022/09/16 11:12:18;;;;;;;2.33;0.70;;;;;;;;;;5056086;28;20426;-71
2022/09/16 11:14:47;;;;;;;4.15;0.90;;;;;;;;;;5055688;28;20028;-70
2022/09/16 11:17:13;;;;;;;2.53;0.88;;;;;;;;;;5055175;28;20453;-70
2022/09/16 11:19:57;;;;;;;3.55;0.70;;;;;;;;;;5055073;28;20033;-72
2022/09/16 11:22:31;;;;;;;2.53;0.80;;;;;;;;;;5055317;28;20091;-72
2022/09/16 11:25:07;;;;;;;5.20;1.10;;;;;;;;;;5055284;28;20499;-70
2022/09/16 11:27:53;;;;;;;5.72;1.10;;;;;;;;;;5054937;28;20056;-71
2022/09/16 11:30:21;;;;;;;3.10;1.13;;;;;;;;;;5054586;28;20039;-72
2022/09/16 11:33:05;;;;;;;2.05;1.02;;;;;;;;;;5054490;28;20017;-72
2022/09/16 11:35:31;;;;;;;4.82;1.00;;;;;;;;;;5054772;28;20381;-71
2022/09/16 11:38:16;;;;;;;2.03;0.77;;;;;;;;;;5054796;28;20029;-73
2022/09/16 11:40:51;;;;;;;3.10;0.90;;;;;;;;;;5054988;28;20527;-71
2022/09/16 11:43:20;;;;;;;3.55;0.77;;;;;;;;;;5054673;28;20543;-72
2022/09/16 11:45:49;;;;;;;7.57;1.25;;;;;;;;;;5054630;28;20424;-72
2022/09/16 11:48:22;;;;;;;3.93;1.13;;;;;;;;;;5054509;28;20091;-72
2022/09/16 11:51:00;;;;;;;4.57;0.88;;;;;;;;;;5054545;28;20802;-72
2022/09/16 11:53:50;;;;;;;2.97;0.88;;;;;;;;;;5054743;28;20021;-70
2022/09/16 11:56:25;;;;;;;3.25;1.27;;;;;;;;;;5054694;28;20025;-72
2022/09/16 11:59:11;;;;;;;4.68;0.82;;;;;;;;;;5054281;28;20563;-71
2022/09/16 12:01:45;;;;;;;3.83;0.90;;;;;;;;;;5047001;28;20048;-71
2022/09/16 12:04:18;;;;;;;2.30;1.20;;;;;;;;;;5055025;28;20417;-72
2022/09/16 12:06:54;;;;;;;3.42;1.00;;;;;;;;;;5054394;28;20060;-71
2022/09/16 12:09:24;;;;;;;1.52;0.70;;;;;;;;;;5054388;28;20507;-71
2022/09/16 12:11:51;;;;;;;5.07;0.77;;;;;;;;;;5054098;28;20025;-71
2022/09/16 12:14:20;;;;;;;5.20;0.95;;;;;;;;;;5054338;28;20024;-71
2022/09/16 12:16:48;;;;;;;7.43;1.00;;;;;;;;;;5053984;28;20028;-73
2022/09/16 12:19:21;;;;;;;3.03;0.60;;;;;;;;;;5053939;28;20363;-71
2022/09/16 12:21:52;;;;;;;2.95;0.55;;;;;;;;;;5054209;28;20025;-71
2022/09/16 12:24:35;;;;;;;1.80;0.60;;;;;;;;;;5054464;28;20029;-72
2022/09/16 12:27:06;;;;;;;1.17;0.68;;;;;;;;;;5054152;28;20043;-71
2022/09/16 12:29:35;;;;;;;2.60;0.73;;;;;;;;;;5053730;28;20068;-71
2022/09/16 12:32:04;;;;;;;3.67;0.88;;;;;;;;;;5053993;28;20029;-73
2022/09/16 12:34:38;;;;;;;3.03;0.70;;;;;;;;;;5053732;28;20021;-72
2022/09/16 12:37:17;;;;;;;1.25;0.88;;;;;;;;;;5054213;28;20017;-72
2022/09/16 12:39:44;;;;;;;3.67;1.13;;;;;;;;;;5053877;28;20055;-72
2022/09/16 12:42:22;;;;;;;2.53;0.85;;;;;;;;;;5053517;28;20066;-72
2022/09/16 12:44:54;;;;;;;3.38;1.05;;;;;;;;;;5052916;28;20438;-72
2022/09/16 12:47:34;;;;;;;1.23;0.57;;;;;;;;;;5053475;28;20071;-71
2022/09/16 12:50:02;;;;;;;3.97;0.80;;;;;;;;;;5053386;28;20025;-72
2022/09/16 12:52:47;;;;;;;10.02;1.42;;;;;;;;;;5053420;28;20024;-71
2022/09/16 12:55:19;;;;;;;0.98;0.73;;;;;;;;;;5053654;28;20405;-70
2022/09/16 12:57:48;;;;;;;5.05;0.75;;;;;;;;;;5053369;28;20032;-71
2022/09/16 13:00:17;;;;;;;6.47;1.10;;;;;;;;;;5053580;28;20035;-72
2022/09/16 13:02:43;;;;;;;2.47;0.85;;;;;;;;;;5053792;28;20025;-72
2022/09/16 13:05:25;;;;;;;6.18;1.20;;;;;;;;;;5053138;28;20389;-73
2022/09/16 13:07:53;;;;;;;1.05;0.60;;;;;;;;;;5053357;28;20033;-72
2022/09/16 13:10:32;;;;;;;1.90;0.75;;;;;;;;;;5053088;28;20043;-72
2022/09/16 13:13:00;;;;;;;2.15;0.77;;;;;;;;;;5053155;28;20028;-71
2022/09/16 13:15:31;;;;;;;8.15;1.42;;;;;;;;;;5053387;28;20021;-71
2022/09/16 13:18:15;;;;;;;1.70;0.40;;;;;;;;;;5053063;28;20100;-71
2022/09/16 13:20:48;;;;;;;2.40;0.70;;;;;;;;;;5053073;28;20032;-71
2022/09/16 13:23:17;;;;;;;1.65;0.70;;;;;;;;;;5053650;28;20025;-70
2022/09/16 13:25:43;;;;;;;4.28;1.27;;;;;;;;;;5053062;28;20429;-71
2022/09/16 13:28:28;;;;;;;2.78;0.73;;;;;;;;;;5053024;28;20036;-71
2022/09/16 13:30:54;;;;;;;4.45;1.10;;;;;;;;;;5053019;28;20051;-71
2022/09/16 13:33:25;;;;;;;2.03;0.65;;;;;;;;;;5053282;28;20029;-72
2022/09/16 13:36:02;;;;;;;3.83;0.90;;;;;;;;;;5052909;28;20051;-73
2022/09/16 13:38:37;;;;;;;3.40;1.02;;;;;;;;;;5053254;28;20065;-72
2022/09/16 13:41:03;;;;;;;8.32;1.25;;;;;;;;;;5052946;28;20075;-72
2022/09/16 13:43:36;;;;;;;2.08;0.90;;;;;;;;;;5052900;28;20028;-72
2022/09/16 13:46:07;;;;;;;5.80;1.10;;;;;;;;;;5053388;28;20477;-72
2022/09/16 13:48:35;;;;;;;4.03;1.10;;;;;;;;;;5052741;28;20029;-71
2022/09/16 13:51:06;;;;;;;2.80;0.98;;;;;;;;;;5053323;28;20472;-71
2022/09/16 13:53:42;;;;;;;2.90;0.75;;;;;;;;;;5052830;28;20025;-73
2022/09/16 13:56:24;;;;;;;2.53;0.93;;;;;;;;;;5056795;28;20025;-72
2022/09/16 13:58:53;;;;;;;4.05;0.90;;;;;;;;;;5056472;28;20052;-70
2022/09/16 14:01:33;;;;;;;2.42;0.68;;;;;;;;;;5057157;28;20024;-71
2022/09/16 14:03:59;;;;;;;4.40;0.80;;;;;;;;;;5057389;28;20493;-73
2022/09/16 14:06:40;;;;;;;3.08;0.93;;;;;;;;;;5056557;28;20040;-72
2022/09/16 14:09:15;;;;;;;3.45;0.93;;;;;;;;;;5056600;28;20412;-71
2022/09/16 14:11:50;;;;;;;38.03;5.25;;;;;;;;;;5056662;28;20021;-71
2022/09/16 14:14:18;;;;;;;8.45;1.83;;;;;;;;;;5056907;28;20082;-73
2022/09/16 14:16:46;;;;;;;3.10;0.95;;;;;;;;;;5056291;28;20021;-72
2022/09/16 14:19:15;;;;;;;5.15;0.90;;;;;;;;;;5056484;28;20033;-73
2022/09/16 14:21:41;;;;;;;1.88;0.68;;;;;;;;;;5056194;28;20138;-72
2022/09/16 14:24:17;;;;;;;3.97;1.05;;;;;;;;;;5056147;28;20064;-71
2022/09/16 14:26:53;;;;;;;2.78;0.90;;;;;;;;;;5056148;28;20082;-72
2022/09/16 14:29:19;;;;;;;3.70;1.10;;;;;;;;;;5056505;28;20059;-73
2022/09/16 14:31:45;;;;;;;4.38;0.90;;;;;;;;;;5056019;28;20021;-71
2022/09/16 14:34:16;;;;;;;1.83;0.90;;;;;;;;;;5055973;28;20025;-73
2022/09/16 14:36:43;;;;;;;3.20;0.80;;;;;;;;;;5056171;28;20377;-72
2022/09/16 14:39:14;;;;;;;3.00;0.73;;;;;;;;;;5055869;28;20032;-71
2022/09/16 14:41:44;;;;;;;2.85;0.77;;;;;;;;;;5055887;28;20025;-72
2022/09/16 14:44:16;;;;;;;3.57;1.10;;;;;;;;;;5055808;28;20029;-73
2022/09/16 14:46:44;;;;;;;3.10;1.10;;;;;;;;;;5055782;28;20396;-73
2022/09/16 14:49:11;;;;;;;1.02;0.93;;;;;;;;;;5055606;28;20113;-72
2022/09/16 14:51:38;;;;;;;3.22;1.08;;;;;;;;;;5055679;28;20013;-72
2022/09/16 14:54:04;;;;;;;4.20;1.10;;;;;;;;;;5055582;28;20436;-72
2022/09/16 14:56:30;;;;;;;10.60;1.23;;;;;;;;;;5055502;28;20025;-71
2022/09/16 14:58:56;;;;;;;1.23;0.85;;;;;;;;;;5055471;28;20048;-71
2022/09/16 15:01:25;;;;;;;3.95;0.85;;;;;;;;;;5055672;28;20432;-71